Time;durP1;ratioP1;P1;durP2;ratioP2;P2;SDS_P1;SDS_P2;PMS_P1;PMS_P2;Temp;Humidity;BMP_temperature;BMP_pressure;BME280_temperature;BME280_humidity;BME280_pressure;Samples;Min_cycle;Max_cycle;Signal;HPM_P1;HPM_P2
2023/03/25 00:00:17;;;;;;;2.73;2.37;;;9.00;99.90;;;;;;5076126;28;20456;-73
2023/03/25 00:02:44;;;;;;;2.77;2.10;;;9.00;99.90;;;;;;5074189;28;20701;-73
2023/03/25 00:05:13;;;;;;;2.80;2.30;;;9.00;99.90;;;;;;5077108;28;20515;-72
2023/03/25 00:07:47;;;;;;;6.87;2.17;;;9.00;99.90;;;;;;5050719;28;20472;-73
2023/03/25 00:10:13;;;;;;;2.33;2.13;;;8.90;99.90;;;;;;5077263;28;20425;-74
2023/03/25 00:12:39;;;;;;;3.83;2.20;;;8.90;99.90;;;;;;5077959;28;20434;-73
2023/03/25 00:15:06;;;;;;;3.90;1.50;;;8.90;99.90;;;;;;5073185;28;20249;-73
2023/03/25 00:17:32;;;;;;;3.00;2.00;;;8.80;99.90;;;;;;5076807;28;20179;-72
2023/03/25 00:19:59;;;;;;;2.27;2.07;;;8.90;99.90;;;;;;5077093;28;20894;-73
2023/03/25 00:22:26;;;;;;;2.43;1.90;;;8.80;99.90;;;;;;5071278;28;20287;-73
2023/03/25 00:24:51;;;;;;;2.33;1.50;;;8.80;99.90;;;;;;5074627;28;20402;-73
2023/03/25 00:27:18;;;;;;;3.30;1.80;;;8.80;99.90;;;;;;5074805;28;20403;-73
2023/03/25 00:29:44;;;;;;;1.50;1.30;;;8.80;99.90;;;;;;5074208;28;20176;-73
2023/03/25 00:32:12;;;;;;;2.30;1.87;;;8.70;99.90;;;;;;5068438;28;20746;-73
2023/03/25 00:34:46;;;;;;;1.93;1.67;;;8.80;99.90;;;;;;5052936;28;20408;-73
2023/03/25 00:37:16;;;;;;;2.93;1.70;;;8.80;99.90;;;;;;5074021;28;20414;-73
2023/03/25 00:39:43;;;;;;;3.87;1.90;;;8.70;99.90;;;;;;5073973;28;20484;-73
2023/03/25 00:42:10;;;;;;;1.77;1.67;;;8.60;99.90;;;;;;5071923;28;20452;-72
2023/03/25 00:44:35;;;;;;;3.60;1.93;;;8.60;99.90;;;;;;5056046;28;20412;-74
2023/03/25 00:47:01;;;;;;;2.83;2.20;;;8.60;99.90;;;;;;5074301;28;20421;-73
2023/03/25 00:49:27;;;;;;;1.87;1.77;;;8.60;99.90;;;;;;5080370;28;20175;-72
2023/03/25 00:51:54;;;;;;;1.93;1.40;;;8.70;99.90;;;;;;5082590;28;20202;-74
2023/03/25 00:54:21;;;;;;;1.70;1.60;;;8.60;99.90;;;;;;5064273;28;20177;-73
2023/03/25 00:56:47;;;;;;;2.10;1.53;;;8.60;99.90;;;;;;5081787;28;20409;-73
2023/03/25 00:59:12;;;;;;;2.33;1.70;;;8.60;99.90;;;;;;5082069;28;20453;-73
2023/03/25 01:01:38;;;;;;;2.40;1.80;;;8.50;99.90;;;;;;5081972;28;20911;-72
2023/03/25 01:04:11;;;;;;;2.57;1.50;;;8.50;99.90;;;;;;5081475;28;20227;-73
2023/03/25 01:06:42;;;;;;;5.07;1.33;;;8.50;99.90;;;;;;5082594;28;20192;-71
2023/03/25 01:09:12;;;;;;;2.93;2.00;;;8.60;99.90;;;;;;5082564;28;20865;-72
2023/03/25 01:11:38;;;;;;;1.93;1.67;;;8.60;99.90;;;;;;5056546;28;20411;-72
2023/03/25 01:14:08;;;;;;;8.80;2.10;;;8.60;99.90;;;;;;5074122;28;20476;-73
2023/03/25 01:16:33;;;;;;;3.60;2.03;;;8.50;99.90;;;;;;5071781;28;20405;-74
2023/03/25 01:18:59;;;;;;;3.27;2.20;;;8.50;99.90;;;;;;5074131;28;20491;-73
2023/03/25 01:21:25;;;;;;;2.10;1.90;;;8.50;99.90;;;;;;5071950;28;20199;-72
2023/03/25 01:23:51;;;;;;;1.93;1.60;;;8.60;99.90;;;;;;5072899;28;20168;-72
2023/03/25 01:26:17;;;;;;;2.67;1.50;;;8.50;99.90;;;;;;5073936;28;20508;-73
2023/03/25 01:28:43;;;;;;;5.83;2.10;;;8.50;99.90;;;;;;5052596;28;20249;-74
2023/03/25 01:31:11;;;;;;;1.97;1.50;;;8.50;99.90;;;;;;5072860;28;20203;-72
2023/03/25 01:33:37;;;;;;;3.27;2.13;;;8.50;99.90;;;;;;5067741;28;20433;-73
2023/03/25 01:36:08;;;;;;;3.13;1.87;;;8.60;99.90;;;;;;5072234;28;20425;-73
2023/03/25 01:38:34;;;;;;;3.33;1.63;;;8.50;99.90;;;;;;5073231;28;20195;-73
2023/03/25 01:40:59;;;;;;;2.13;1.77;;;8.60;99.90;;;;;;5072681;28;20397;-72
2023/03/25 01:43:25;;;;;;;2.17;1.73;;;8.50;99.90;;;;;;5070300;28;20477;-73
2023/03/25 01:45:51;;;;;;;2.40;1.70;;;8.50;99.90;;;;;;5064778;28;20271;-73
2023/03/25 01:48:39;;;;;;;2.77;1.70;;;8.50;99.90;;;;;;5079711;28;20251;-73
2023/03/25 01:51:12;;;;;;;3.27;2.27;;;8.50;99.90;;;;;;5077020;28;20226;-74
2023/03/25 01:53:39;;;;;;;2.50;1.83;;;8.50;99.90;;;;;;5069897;28;20735;-74
2023/03/25 01:56:06;;;;;;;1.60;1.37;;;8.40;99.90;;;;;;5075465;28;20446;-73
2023/03/25 01:58:34;;;;;;;1.77;1.50;;;8.40;99.90;;;;;;5075449;28;20537;-73
2023/03/25 02:01:01;;;;;;;2.60;1.87;;;8.40;99.90;;;;;;5074404;28;20930;-73
2023/03/25 02:03:29;;;;;;;2.10;1.47;;;8.40;99.90;;;;;;5074131;28;20439;-73
2023/03/25 02:06:08;;;;;;;1.90;1.70;;;8.40;99.90;;;;;;5073423;28;20476;-73
2023/03/25 02:08:40;;;;;;;4.57;1.57;;;8.40;99.90;;;;;;5073392;28;20409;-73
2023/03/25 02:11:07;;;;;;;3.00;1.97;;;8.40;99.90;;;;;;5072699;28;20410;-73
2023/03/25 02:13:35;;;;;;;2.60;1.40;;;8.40;99.90;;;;;;5077812;28;20447;-73
2023/03/25 02:16:30;;;;;;;3.40;1.33;;;8.40;99.90;;;;;;5072940;28;20969;-73
2023/03/25 02:19:01;;;;;;;4.10;1.63;;;8.40;99.90;;;;;;5073471;28;20480;-73
2023/03/25 02:21:45;;;;;;;4.13;1.70;;;8.40;99.90;;;;;;5058905;28;20445;-74
2023/03/25 02:24:28;;;;;;;2.60;1.40;;;8.50;99.90;;;;;;5081539;28;20492;-74
2023/03/25 02:27:12;;;;;;;1.40;1.30;;;8.50;99.90;;;;;;5061840;28;20417;-73
2023/03/25 02:30:07;;;;;;;2.23;1.70;;;8.60;99.90;;;;;;5080448;28;20447;-72
2023/03/25 02:32:39;;;;;;;2.80;1.60;;;8.70;99.90;;;;;;5053403;28;20433;-73
2023/03/25 02:35:48;;;;;;;2.00;1.80;;;8.70;99.90;;;;;;5073839;28;20794;-74
2023/03/25 02:38:57;;;;;;;2.90;1.70;;;8.70;99.90;;;;;;5074702;28;20480;-72
2023/03/25 02:41:34;;;;;;;3.70;1.80;;;8.80;99.90;;;;;;5077111;28;20419;-73
2023/03/25 02:44:12;;;;;;;2.73;2.00;;;8.80;99.90;;;;;;5077758;28;20424;-73
2023/03/25 02:46:44;;;;;;;2.10;1.30;;;8.80;99.90;;;;;;5073814;28;20405;-74
2023/03/25 02:49:17;;;;;;;2.10;1.50;;;8.80;99.90;;;;;;5077067;28;20408;-74
2023/03/25 02:51:51;;;;;;;1.93;1.53;;;8.80;99.90;;;;;;5076765;28;20437;-73
2023/03/25 02:54:19;;;;;;;1.60;1.30;;;8.80;99.90;;;;;;5076875;28;20409;-74
2023/03/25 02:56:47;;;;;;;4.37;1.67;;;8.70;99.90;;;;;;5076439;28;20412;-74
2023/03/25 02:59:14;;;;;;;3.00;1.50;;;8.70;99.90;;;;;;5076769;28;20861;-73
2023/03/25 03:01:40;;;;;;;2.80;1.43;;;8.70;99.90;;;;;;5075993;28;20436;-74
2023/03/25 03:04:06;;;;;;;2.67;1.30;;;8.70;99.90;;;;;;5076255;28;20407;-73
2023/03/25 03:06:37;;;;;;;1.83;1.53;;;8.70;99.90;;;;;;5075514;28;20483;-73
2023/03/25 03:09:24;;;;;;;1.90;1.70;;;8.70;99.90;;;;;;5077183;28;20208;-73
2023/03/25 03:12:15;;;;;;;3.90;1.53;;;8.80;99.90;;;;;;5075184;28;20473;-73
2023/03/25 03:15:12;;;;;;;1.73;1.63;;;8.90;99.90;;;;;;5070403;28;20435;-76
2023/03/25 03:18:11;;;;;;;2.70;1.97;;;8.90;99.90;;;;;;5069368;28;20407;-73
2023/03/25 03:20:52;;;;;;;7.67;1.97;;;8.90;99.90;;;;;;5066547;28;20428;-72
2023/03/25 03:23:35;;;;;;;2.30;1.40;;;9.00;99.90;;;;;;5078371;28;20519;-73
2023/03/25 03:26:01;;;;;;;1.80;1.60;;;9.00;99.90;;;;;;5075849;28;20446;-73
2023/03/25 03:28:29;;;;;;;2.47;1.80;;;9.00;99.90;;;;;;5073831;28;20619;-76
2023/03/25 03:31:14;;;;;;;3.30;1.70;;;9.00;99.90;;;;;;5075332;28;20170;-73
2023/03/25 03:33:46;;;;;;;3.40;1.90;;;8.90;99.90;;;;;;5075355;28;20795;-72
2023/03/25 03:36:15;;;;;;;6.60;1.63;;;8.90;99.90;;;;;;5076465;28;20421;-73
2023/03/25 03:38:47;;;;;;;2.00;1.80;;;8.80;99.90;;;;;;5054350;28;20554;-72
2023/03/25 03:41:18;;;;;;;2.27;1.40;;;8.80;99.90;;;;;;5074374;28;20412;-72
2023/03/25 03:44:09;;;;;;;3.07;1.47;;;8.80;99.90;;;;;;5074354;28;20450;-72
2023/03/25 03:46:44;;;;;;;1.97;1.57;;;8.70;99.90;;;;;;5072957;28;20432;-73
2023/03/25 03:49:16;;;;;;;1.70;1.60;;;8.70;99.90;;;;;;5074165;28;20417;-73
2023/03/25 03:51:51;;;;;;;2.10;1.60;;;8.70;99.90;;;;;;5066485;28;20425;-73
2023/03/25 03:54:21;;;;;;;3.80;2.60;;;8.70;99.90;;;;;;5073444;28;20764;-73
2023/03/25 03:57:01;;;;;;;2.40;1.50;;;8.70;99.90;;;;;;5073038;28;20565;-72
2023/03/25 03:59:34;;;;;;;2.40;1.70;;;8.60;99.90;;;;;;5072348;28;20544;-75
2023/03/25 04:02:05;;;;;;;2.07;1.53;;;8.70;99.90;;;;;;5071495;28;20908;-73
2023/03/25 04:04:33;;;;;;;1.63;1.53;;;8.60;99.90;;;;;;5072440;28;20398;-72
2023/03/25 04:07:13;;;;;;;2.40;2.20;;;8.60;99.90;;;;;;5054548;28;20410;-74
2023/03/25 04:09:53;;;;;;;1.37;1.20;;;8.60;99.90;;;;;;5066437;28;20400;-72
2023/03/25 04:12:27;;;;;;;1.83;1.57;;;8.60;99.90;;;;;;5068609;28;20522;-73
2023/03/25 04:14:55;;;;;;;1.93;1.20;;;8.60;99.90;;;;;;5072629;28;20420;-73
2023/03/25 04:17:22;;;;;;;2.90;1.53;;;8.60;99.90;;;;;;5072783;28;20408;-73
2023/03/25 04:19:52;;;;;;;1.67;1.27;;;8.50;99.90;;;;;;5065696;28;20495;-72
2023/03/25 04:22:19;;;;;;;1.43;1.20;;;8.50;99.90;;;;;;5072341;28;20434;-73
2023/03/25 04:24:48;;;;;;;2.50;1.37;;;8.60;99.90;;;;;;5072160;28;20453;-73
2023/03/25 04:27:18;;;;;;;2.07;1.17;;;8.60;99.90;;;;;;5071562;28;20421;-72
2023/03/25 04:29:46;;;;;;;4.60;1.43;;;8.60;99.90;;;;;;5069794;28;20426;-73
2023/03/25 04:32:12;;;;;;;2.40;1.53;;;8.60;99.90;;;;;;5070365;28;20438;-75
2023/03/25 04:34:38;;;;;;;3.43;2.13;;;8.60;99.90;;;;;;5068353;28;20409;-73
2023/03/25 04:37:04;;;;;;;1.20;1.10;;;8.70;99.90;;;;;;5072505;28;20437;-73
2023/03/25 04:39:31;;;;;;;1.70;1.37;;;8.60;99.90;;;;;;5063620;28;20467;-73
2023/03/25 04:42:00;;;;;;;1.03;0.97;;;8.70;99.90;;;;;;5071774;28;20208;-74
2023/03/25 04:44:27;;;;;;;1.20;1.10;;;8.70;99.90;;;;;;5072367;28;20504;-73
2023/03/25 04:46:54;;;;;;;2.07;1.33;;;8.60;99.90;;;;;;5072435;28;20417;-73
2023/03/25 04:49:22;;;;;;;2.93;1.53;;;8.60;99.90;;;;;;5072585;28;20507;-74
2023/03/25 04:51:50;;;;;;;2.30;1.33;;;8.60;99.90;;;;;;5072318;28;20436;-73
2023/03/25 04:54:16;;;;;;;1.43;1.30;;;8.60;99.90;;;;;;5071826;28;20819;-73
2023/03/25 04:56:42;;;;;;;1.20;1.10;;;8.60;99.90;;;;;;5067706;28;20870;-73
2023/03/25 04:59:09;;;;;;;2.10;1.00;;;8.60;99.90;;;;;;5072655;28;20452;-73
2023/03/25 05:01:40;;;;;;;1.40;1.30;;;8.50;99.90;;;;;;5074257;28;20172;-73
2023/03/25 05:04:11;;;;;;;1.63;1.00;;;8.50;99.90;;;;;;5076487;28;20412;-72
2023/03/25 05:06:38;;;;;;;1.77;1.20;;;8.50;99.90;;;;;;5078292;28;20413;-74
2023/03/25 05:09:06;;;;;;;4.03;1.50;;;8.50;99.90;;;;;;5078114;28;20429;-73
2023/03/25 05:11:34;;;;;;;2.13;1.60;;;8.50;99.90;;;;;;5060656;28;20429;-73
2023/03/25 05:14:00;;;;;;;1.83;1.10;;;8.40;99.90;;;;;;5068359;28;20434;-74
2023/03/25 05:16:25;;;;;;;4.60;1.40;;;8.50;99.90;;;;;;5070898;28;20415;-73
2023/03/25 05:18:51;;;;;;;4.07;1.33;;;8.50;99.90;;;;;;5071614;28;20203;-73
2023/03/25 05:21:17;;;;;;;4.00;1.70;;;8.50;99.90;;;;;;5071536;28;20180;-72
2023/03/25 05:23:43;;;;;;;3.50;1.63;;;8.50;99.90;;;;;;5071190;28;20268;-72
2023/03/25 05:26:10;;;;;;;1.60;1.30;;;8.40;99.90;;;;;;5068621;28;20191;-74
2023/03/25 05:28:37;;;;;;;2.00;1.40;;;8.50;99.90;;;;;;5052683;28;20883;-74
2023/03/25 05:31:07;;;;;;;4.70;1.30;;;8.40;99.90;;;;;;5071219;28;20854;-73
2023/03/25 05:33:35;;;;;;;5.00;1.20;;;8.50;99.90;;;;;;5071318;28;20487;-72
2023/03/25 05:36:02;;;;;;;2.80;1.13;;;8.50;99.90;;;;;;5052734;28;20999;-72
2023/03/25 05:38:28;;;;;;;2.07;1.20;;;8.50;99.90;;;;;;5052889;28;20517;-73
2023/03/25 05:40:53;;;;;;;2.40;1.27;;;8.50;99.90;;;;;;5065867;28;20555;-73
2023/03/25 05:43:22;;;;;;;2.90;1.30;;;8.60;99.90;;;;;;5070832;28;20218;-73
2023/03/25 05:45:48;;;;;;;2.70;1.40;;;8.60;99.90;;;;;;5077952;28;20657;-72
2023/03/25 05:48:14;;;;;;;2.10;1.30;;;8.70;99.90;;;;;;5078358;28;20579;-74
2023/03/25 05:50:43;;;;;;;2.70;1.10;;;8.90;99.90;;;;;;5079600;28;20588;-73
2023/03/25 05:53:14;;;;;;;7.40;1.20;;;9.00;99.90;;;;;;5083927;28;20196;-73
2023/03/25 05:55:40;;;;;;;2.40;0.97;;;9.10;99.90;;;;;;5083821;28;20846;-72
2023/03/25 05:58:05;;;;;;;1.00;0.80;;;9.10;99.90;;;;;;5082653;28;20422;-72
2023/03/25 06:00:31;;;;;;;3.00;1.30;;;9.20;99.90;;;;;;5064577;28;20344;-73
2023/03/25 06:02:58;;;;;;;1.00;0.90;;;9.20;99.90;;;;;;5083858;28;20223;-72
2023/03/25 06:05:24;;;;;;;1.27;1.10;;;9.20;99.90;;;;;;5082748;28;20412;-73
2023/03/25 06:07:54;;;;;;;1.20;1.10;;;9.10;99.90;;;;;;5084157;28;20441;-72
2023/03/25 06:10:21;;;;;;;1.40;0.90;;;9.20;99.90;;;;;;5082487;28;20503;-72
2023/03/25 06:12:47;;;;;;;1.43;0.63;;;9.20;99.90;;;;;;5087030;28;20774;-72
2023/03/25 06:15:27;;;;;;;3.77;1.10;;;9.30;99.90;;;;;;5080870;28;20459;-74
2023/03/25 06:17:55;;;;;;;2.87;1.00;;;9.30;99.90;;;;;;5073887;28;20483;-72
2023/03/25 06:20:21;;;;;;;1.30;1.10;;;9.40;99.90;;;;;;5079563;28;20458;-74
2023/03/25 06:22:47;;;;;;;1.03;0.80;;;9.40;99.90;;;;;;5080482;28;20592;-72
2023/03/25 06:25:16;;;;;;;1.67;1.13;;;9.40;99.90;;;;;;5082586;28;20193;-74
2023/03/25 06:27:42;;;;;;;2.10;0.97;;;9.40;99.90;;;;;;5082717;28;20227;-73
2023/03/25 06:30:11;;;;;;;1.50;0.90;;;9.40;99.90;;;;;;5078872;28;20629;-74
2023/03/25 06:32:37;;;;;;;2.00;0.80;;;9.40;99.90;;;;;;5077677;28;20491;-75
2023/03/25 06:35:05;;;;;;;1.90;0.90;;;9.50;99.90;;;;;;5078872;28;20779;-75
2023/03/25 06:37:30;;;;;;;3.63;0.90;;;9.50;99.90;;;;;;5077720;28;20228;-73
2023/03/25 06:39:58;;;;;;;1.73;0.90;;;9.50;99.90;;;;;;5079607;28;21019;-73
2023/03/25 06:42:25;;;;;;;1.10;0.87;;;9.60;99.90;;;;;;5074825;28;20206;-73
2023/03/25 06:44:50;;;;;;;0.83;0.83;;;9.60;99.90;;;;;;5075624;28;20416;-72
2023/03/25 06:47:16;;;;;;;3.53;0.90;;;9.70;99.90;;;;;;5077178;28;20513;-73
2023/03/25 06:49:42;;;;;;;2.50;1.87;;;9.70;99.90;;;;;;5077097;28;20172;-73
2023/03/25 06:52:07;;;;;;;1.10;0.80;;;9.70;99.90;;;;;;5076877;28;20451;-73
2023/03/25 06:54:33;;;;;;;0.80;0.73;;;9.60;99.90;;;;;;5075374;28;20221;-72
2023/03/25 06:56:59;;;;;;;1.80;1.00;;;9.70;99.90;;;;;;5069621;28;20174;-73
2023/03/25 06:59:25;;;;;;;1.93;1.07;;;9.90;99.90;;;;;;5072377;28;20186;-74
2023/03/25 07:01:50;;;;;;;4.50;0.93;;;10.00;99.90;;;;;;5074055;28;20225;-71
2023/03/25 07:04:16;;;;;;;1.50;1.00;;;10.00;99.90;;;;;;5073987;28;20424;-71
2023/03/25 07:06:41;;;;;;;2.10;1.17;;;10.50;99.90;;;;;;5074329;28;20576;-72
2023/03/25 07:09:07;;;;;;;2.10;0.97;;;11.00;99.90;;;;;;5074362;28;20186;-73
2023/03/25 07:11:33;;;;;;;0.93;0.80;;;10.80;99.90;;;;;;5073384;28;20174;-73
2023/03/25 07:13:59;;;;;;;3.83;1.00;;;11.80;99.90;;;;;;5073896;28;20185;-72
2023/03/25 07:16:25;;;;;;;2.63;1.07;;;12.40;99.90;;;;;;5074311;28;20539;-72
2023/03/25 07:18:52;;;;;;;2.30;1.20;;;12.60;99.90;;;;;;5074239;28;20589;-72
2023/03/25 07:21:18;;;;;;;1.33;1.00;;;12.50;99.90;;;;;;5075044;28;20405;-72
2023/03/25 07:23:44;;;;;;;1.43;0.70;;;12.60;99.90;;;;;;5073767;28;20528;-72
2023/03/25 07:26:09;;;;;;;1.57;0.90;;;13.20;99.90;;;;;;5073587;28;20406;-72
2023/03/25 07:28:36;;;;;;;1.10;0.83;;;13.70;99.90;;;;;;5073642;28;20401;-73
2023/03/25 07:31:06;;;;;;;6.27;1.13;;;13.90;99.90;;;;;;5073881;28;20182;-73
2023/03/25 07:33:31;;;;;;;4.20;0.80;;;14.30;99.90;;;;;;5073155;28;20424;-73
2023/03/25 07:35:57;;;;;;;2.10;0.70;;;13.50;99.90;;;;;;5073692;28;20729;-72
2023/03/25 07:38:22;;;;;;;1.67;0.77;;;15.60;99.90;;;;;;5073283;28;20176;-73
2023/03/25 07:40:48;;;;;;;0.80;0.80;;;15.00;99.90;;;;;;5073086;28;20523;-72
2023/03/25 07:43:14;;;;;;;3.03;1.20;;;15.70;99.90;;;;;;5072865;28;20215;-74
2023/03/25 07:45:40;;;;;;;2.60;0.90;;;14.80;99.90;;;;;;5072985;28;20173;-72
2023/03/25 07:48:12;;;;;;;1.03;0.90;;;14.20;99.90;;;;;;5072973;28;20266;-73
2023/03/25 07:50:37;;;;;;;1.83;1.13;;;14.60;99.90;;;;;;5072744;28;20178;-73
2023/03/25 07:53:03;;;;;;;1.43;1.17;;;14.30;99.90;;;;;;5072688;28;20946;-72
2023/03/25 07:55:29;;;;;;;1.97;0.97;;;13.70;99.90;;;;;;5055613;28;20636;-73
2023/03/25 07:57:55;;;;;;;1.83;0.87;;;14.10;99.90;;;;;;5068484;28;20710;-73
2023/03/25 08:00:22;;;;;;;1.53;0.90;;;13.80;99.90;;;;;;5067821;28;20210;-73
2023/03/25 08:02:47;;;;;;;2.10;1.10;;;13.30;99.90;;;;;;5072695;28;20494;-72
2023/03/25 08:05:19;;;;;;;3.57;1.03;;;13.20;99.90;;;;;;5072444;28;20191;-72
2023/03/25 08:07:49;;;;;;;2.60;1.30;;;12.50;99.90;;;;;;5072315;28;20265;-71
2023/03/25 08:10:16;;;;;;;1.03;0.70;;;12.50;99.90;;;;;;5056511;28;20422;-74
2023/03/25 08:12:43;;;;;;;2.33;1.10;;;12.70;99.90;;;;;;5065721;28;20602;-75
2023/03/25 08:15:10;;;;;;;3.00;1.63;;;12.60;99.90;;;;;;5072757;28;20496;-71
2023/03/25 08:17:36;;;;;;;1.77;1.00;;;12.30;99.90;;;;;;5072224;28;20538;-72
2023/03/25 08:20:04;;;;;;;1.63;1.00;;;12.50;99.90;;;;;;5072391;28;20455;-72
2023/03/25 08:22:30;;;;;;;1.13;0.90;;;13.10;99.90;;;;;;5072116;28;20436;-73
2023/03/25 08:24:55;;;;;;;2.80;1.10;;;13.00;99.90;;;;;;5072211;28;20805;-71
2023/03/25 08:27:21;;;;;;;4.47;1.20;;;12.80;99.90;;;;;;5072169;28;20452;-73
2023/03/25 08:29:54;;;;;;;3.53;0.93;;;12.70;99.90;;;;;;5072143;28;20175;-74
2023/03/25 08:32:20;;;;;;;3.50;1.23;;;12.90;99.90;;;;;;5072097;28;20194;-73
2023/03/25 08:34:46;;;;;;;2.13;1.30;;;12.50;99.90;;;;;;5053843;28;20485;-72
2023/03/25 08:37:14;;;;;;;4.00;1.10;;;12.50;99.90;;;;;;5072110;28;20287;-73
2023/03/25 08:39:40;;;;;;;1.80;0.93;;;12.80;99.90;;;;;;5071887;28;20523;-74
2023/03/25 08:42:10;;;;;;;1.97;0.90;;;12.50;99.90;;;;;;5071754;28;20459;-72
2023/03/25 08:44:36;;;;;;;1.40;1.00;;;12.60;99.90;;;;;;5071135;28;20707;-73
2023/03/25 08:47:02;;;;;;;5.93;1.20;;;12.90;99.90;;;;;;5072299;28;20560;-73
2023/03/25 08:49:28;;;;;;;3.93;0.80;;;13.10;99.90;;;;;;5067414;28;20652;-73
2023/03/25 08:51:53;;;;;;;2.93;0.90;;;13.30;99.90;;;;;;5066342;28;20453;-74
2023/03/25 08:54:20;;;;;;;2.10;0.80;;;13.50;99.90;;;;;;5066917;28;20187;-72
2023/03/25 08:56:45;;;;;;;2.30;1.30;;;13.10;99.90;;;;;;5071269;28;20529;-73
2023/03/25 08:59:11;;;;;;;0.90;0.80;;;13.30;99.90;;;;;;5068282;28;20878;-72
2023/03/25 09:01:37;;;;;;;2.03;0.97;;;12.80;99.90;;;;;;5072406;28;20172;-73
2023/03/25 09:04:03;;;;;;;1.10;1.00;;;12.90;99.90;;;;;;5072256;28;20883;-72
2023/03/25 09:06:28;;;;;;;3.30;1.20;;;12.90;99.90;;;;;;5071969;28;20175;-73
2023/03/25 09:08:54;;;;;;;1.50;1.17;;;12.60;99.90;;;;;;5072298;28;20178;-72
2023/03/25 09:11:20;;;;;;;3.03;0.90;;;12.70;99.90;;;;;;5063241;28;20198;-73
2023/03/25 09:13:46;;;;;;;1.20;1.10;;;12.80;99.90;;;;;;5072032;28;20503;-73
2023/03/25 09:16:12;;;;;;;0.90;0.90;;;13.40;99.90;;;;;;5073029;28;20445;-73
2023/03/25 09:18:37;;;;;;;1.17;1.03;;;13.80;99.90;;;;;;5072429;28;20546;-73
2023/03/25 09:21:03;;;;;;;1.93;1.03;;;13.70;99.90;;;;;;5073915;28;20175;-73
2023/03/25 09:23:29;;;;;;;0.90;0.77;;;13.50;99.90;;;;;;5073502;28;20793;-73
2023/03/25 09:25:59;;;;;;;1.53;0.80;;;13.00;99.90;;;;;;5074826;28;20409;-73
2023/03/25 09:28:25;;;;;;;1.20;0.87;;;12.70;99.90;;;;;;5073573;28;20231;-71
2023/03/25 09:30:51;;;;;;;0.93;0.93;;;12.60;99.90;;;;;;5071761;28;20416;-73
2023/03/25 09:33:18;;;;;;;1.50;1.00;;;12.50;99.90;;;;;;5065473;28;20280;-72
2023/03/25 09:35:43;;;;;;;2.27;0.80;;;12.40;99.90;;;;;;5071629;28;20178;-73
2023/03/25 09:38:09;;;;;;;2.07;1.20;;;12.60;99.90;;;;;;5071389;28;20910;-71
2023/03/25 09:40:35;;;;;;;1.63;1.10;;;12.10;99.90;;;;;;5071603;28;20232;-71
2023/03/25 09:43:14;;;;;;;1.13;0.90;;;11.90;99.90;;;;;;5067179;28;20207;-73
2023/03/25 09:45:48;;;;;;;2.40;1.70;;;11.60;99.90;;;;;;5063208;28;20161;-72
2023/03/25 09:48:35;;;;;;;2.70;1.37;;;11.60;99.90;;;;;;5071199;28;20866;-73
2023/03/25 09:51:23;;;;;;;1.30;1.20;;;11.70;99.90;;;;;;5071327;28;20413;-73
2023/03/25 09:53:59;;;;;;;1.07;0.97;;;11.90;99.90;;;;;;5070779;28;20950;-74
2023/03/25 09:56:28;;;;;;;1.70;1.20;;;12.00;99.90;;;;;;5071814;28;20444;-72
2023/03/25 09:59:02;;;;;;;1.87;0.90;;;12.80;99.90;;;;;;5070639;28;20581;-73
2023/03/25 10:01:50;;;;;;;1.23;1.13;;;13.00;99.90;;;;;;5068549;28;20415;-72
2023/03/25 10:04:49;;;;;;;3.23;1.07;;;12.90;99.90;;;;;;5068135;28;20446;-73
2023/03/25 10:08:04;;;;;;;2.40;0.90;;;12.60;99.90;;;;;;5050007;28;20470;-73
2023/03/25 10:10:56;;;;;;;1.53;0.97;;;12.70;99.90;;;;;;5050054;28;20875;-74
2023/03/25 10:13:45;;;;;;;1.87;0.90;;;12.40;99.90;;;;;;5069038;28;20467;-72
2023/03/25 10:16:49;;;;;;;2.03;1.10;;;12.40;99.90;;;;;;5061147;28;20394;-73
2023/03/25 10:19:21;;;;;;;1.33;1.00;;;12.50;99.90;;;;;;5063725;28;20992;-72
2023/03/25 10:22:17;;;;;;;1.17;0.70;;;12.50;99.90;;;;;;5070843;28;20485;-74
2023/03/25 10:25:10;;;;;;;1.20;0.90;;;12.20;99.90;;;;;;5062258;28;20416;-73
2023/03/25 10:27:44;;;;;;;2.70;1.00;;;12.20;99.90;;;;;;5070148;28;20416;-73
2023/03/25 10:30:25;;;;;;;1.33;0.70;;;12.20;99.90;;;;;;5071720;28;20413;-72
2023/03/25 10:33:17;;;;;;;2.80;1.20;;;12.50;99.90;;;;;;5072341;28;20451;-73
2023/03/25 10:35:46;;;;;;;0.80;0.80;;;13.00;99.90;;;;;;5055798;28;20422;-72
2023/03/25 10:38:17;;;;;;;0.80;0.80;;;13.30;99.90;;;;;;5071120;28;21123;-71
2023/03/25 10:40:49;;;;;;;2.40;1.00;;;13.10;99.90;;;;;;5075478;28;20612;-73
2023/03/25 10:43:37;;;;;;;2.30;0.93;;;13.00;99.90;;;;;;5074989;28;20466;-72
2023/03/25 10:46:28;;;;;;;1.33;0.90;;;13.30;99.90;;;;;;5074337;28;20561;-72
2023/03/25 10:48:54;;;;;;;1.03;0.90;;;13.30;99.90;;;;;;5068822;28;20541;-72
2023/03/25 10:51:27;;;;;;;1.30;0.90;;;13.50;99.90;;;;;;5075164;28;20475;-72
2023/03/25 10:53:53;;;;;;;2.07;1.13;;;14.00;99.90;;;;;;5078342;28;20232;-74
2023/03/25 10:56:41;;;;;;;1.60;1.10;;;14.30;99.90;;;;;;5084898;28;20412;-74
2023/03/25 10:59:35;;;;;;;2.20;1.30;;;13.80;99.90;;;;;;5082731;28;20201;-73
2023/03/25 11:02:17;;;;;;;3.03;1.20;;;13.40;99.90;;;;;;5070930;28;20428;-72
2023/03/25 11:04:44;;;;;;;2.30;1.10;;;13.30;99.90;;;;;;5075294;28;20470;-72
2023/03/25 11:07:33;;;;;;;1.13;0.93;;;13.60;99.90;;;;;;5082329;28;20420;-73
2023/03/25 11:10:12;;;;;;;3.03;1.00;;;13.60;99.90;;;;;;5071039;28;20501;-72
2023/03/25 11:12:47;;;;;;;1.00;0.80;;;13.70;99.90;;;;;;5082991;28;20429;-73
2023/03/25 11:15:19;;;;;;;3.27;1.20;;;13.60;99.90;;;;;;5070952;28;20458;-72
2023/03/25 11:17:46;;;;;;;2.57;0.77;;;13.30;99.90;;;;;;5078654;28;20879;-71
2023/03/25 11:20:19;;;;;;;4.77;0.83;;;13.40;99.90;;;;;;5074128;28;20949;-73
2023/03/25 11:22:49;;;;;;;1.03;0.93;;;13.30;99.90;;;;;;5074134;28;20448;-74
2023/03/25 11:25:24;;;;;;;1.53;1.17;;;13.40;99.90;;;;;;5073970;28;20413;-72
2023/03/25 11:27:57;;;;;;;1.60;0.80;;;13.60;99.90;;;;;;5069239;28;20409;-72
2023/03/25 11:30:24;;;;;;;1.10;1.00;;;13.50;99.90;;;;;;5074143;28;20759;-73
2023/03/25 11:33:13;;;;;;;1.70;1.10;;;13.50;99.90;;;;;;5074860;28;20436;-72
2023/03/25 11:35:45;;;;;;;1.37;1.00;;;13.50;99.90;;;;;;5079457;28;20408;-72
2023/03/25 11:38:31;;;;;;;1.07;0.80;;;13.30;99.90;;;;;;5089943;28;20444;-72
2023/03/25 11:40:57;;;;;;;2.23;0.90;;;12.20;99.90;;;;;;5089609;28;20407;-71
2023/03/25 11:43:27;;;;;;;1.00;0.90;;;11.80;99.90;;;;;;5080096;28;20448;-73
2023/03/25 11:45:53;;;;;;;0.70;0.70;;;11.90;99.90;;;;;;5079100;28;20412;-72
2023/03/25 11:48:28;;;;;;;0.83;0.83;;;11.80;99.90;;;;;;5072974;28;20413;-71
2023/03/25 11:51:00;;;;;;;0.90;0.90;;;12.00;99.90;;;;;;5073560;28;20261;-72
2023/03/25 11:53:29;;;;;;;1.27;0.90;;;11.90;99.90;;;;;;5073688;28;20782;-73
2023/03/25 11:55:59;;;;;;;1.93;1.40;;;11.90;99.90;;;;;;5073605;28;20448;-72
2023/03/25 11:58:28;;;;;;;1.83;1.33;;;11.60;99.90;;;;;;5073089;28;20408;-72
2023/03/25 12:01:02;;;;;;;0.83;0.83;;;11.60;99.90;;;;;;5073874;28;20460;-71
2023/03/25 12:03:32;;;;;;;1.90;1.00;;;11.80;99.90;;;;;;5073807;28;20432;-72
2023/03/25 12:06:10;;;;;;;1.30;1.20;;;12.00;99.90;;;;;;5055308;28;20949;-72
2023/03/25 12:08:48;;;;;;;1.80;1.20;;;12.20;99.90;;;;;;5067702;28;20848;-73
2023/03/25 12:11:16;;;;;;;0.80;0.80;;;12.70;99.90;;;;;;5073459;28;20919;-72
2023/03/25 12:13:41;;;;;;;0.90;0.90;;;12.90;99.90;;;;;;5073194;28;20969;-72
2023/03/25 12:16:13;;;;;;;1.07;0.80;;;13.40;99.90;;;;;;5073177;28;20441;-73
2023/03/25 12:18:53;;;;;;;1.77;0.90;;;13.40;99.90;;;;;;5062395;28;20278;-72
2023/03/25 12:21:53;;;;;;;1.13;0.87;;;13.40;99.90;;;;;;5071142;28;20411;-73
2023/03/25 12:24:51;;;;;;;0.97;0.70;;;13.10;99.90;;;;;;5068068;28;20537;-73
2023/03/25 12:27:31;;;;;;;1.50;0.70;;;13.10;99.90;;;;;;5061824;28;20498;-71
2023/03/25 12:30:06;;;;;;;3.30;0.87;;;13.00;99.90;;;;;;5075967;28;20439;-76
2023/03/25 12:32:56;;;;;;;2.43;0.90;;;12.80;99.90;;;;;;5054202;28;20456;-72
2023/03/25 12:35:31;;;;;;;3.23;0.80;;;13.10;99.90;;;;;;5073166;28;20784;-72
2023/03/25 12:38:02;;;;;;;1.13;1.03;;;13.30;99.90;;;;;;5072754;28;20444;-72
2023/03/25 12:40:45;;;;;;;0.77;0.73;;;13.30;99.90;;;;;;5072256;28;20460;-73
2023/03/25 12:43:14;;;;;;;0.70;0.70;;;13.30;99.90;;;;;;5050688;28;20805;-71
2023/03/25 12:45:48;;;;;;;0.90;0.67;;;13.30;99.90;;;;;;5054020;28;20462;-73
2023/03/25 12:48:17;;;;;;;2.97;0.93;;;13.30;99.90;;;;;;5071961;28;20917;-73
2023/03/25 12:50:59;;;;;;;1.10;0.70;;;13.30;99.90;;;;;;5071686;28;20409;-71
2023/03/25 12:54:15;;;;;;;0.90;0.80;;;13.30;99.90;;;;;;5055932;28;20486;-73
2023/03/25 12:57:00;;;;;;;1.10;0.80;;;13.50;99.90;;;;;;5063055;28;20780;-72
2023/03/25 12:59:52;;;;;;;1.03;0.93;;;13.80;99.90;;;;;;5072329;28;20482;-72
2023/03/25 13:02:57;;;;;;;1.27;0.80;;;13.60;99.90;;;;;;5066661;28;20420;-72
2023/03/25 13:05:46;;;;;;;0.60;0.60;;;13.40;99.90;;;;;;5071790;28;20411;-73
2023/03/25 13:08:31;;;;;;;0.77;0.77;;;13.30;99.90;;;;;;5066067;28;20495;-72
2023/03/25 13:11:10;;;;;;;0.90;0.90;;;13.20;99.90;;;;;;5070622;28;20790;-72
2023/03/25 13:13:38;;;;;;;1.20;0.70;;;13.00;99.90;;;;;;5068591;28;20432;-73
2023/03/25 13:16:06;;;;;;;1.07;0.90;;;12.80;99.90;;;;;;5070341;28;20425;-74